Time;durP1;ratioP1;P1;durP2;ratioP2;P2;SDS_P1;SDS_P2;PMS_P1;PMS_P2;Temp;Humidity;BMP_temperature;BMP_pressure;BME280_temperature;BME280_humidity;BME280_pressure;Samples;Min_cycle;Max_cycle;Signal;HPM_P1;HPM_P2
2022/10/08 00:01:53;;;;;;;1.30;1.20;;;;;;;;;;5051439;28;20053;-88
2022/10/08 00:04:19;;;;;;;2.55;2.35;;;;;;;;;;5051667;28;20571;-87
2022/10/08 00:06:46;;;;;;;0.98;0.98;;;;;;;;;;5051871;28;20099;-88
2022/10/08 00:09:14;;;;;;;5.97;2.05;;;;;;;;;;5051293;28;20103;-87
2022/10/08 00:11:41;;;;;;;3.25;2.35;;;;;;;;;;5051437;28;20049;-87
2022/10/08 00:14:08;;;;;;;2.15;1.95;;;;;;;;;;5051641;28;20512;-88
2022/10/08 00:16:36;;;;;;;2.20;2.10;;;;;;;;;;5054434;28;20117;-87
2022/10/08 00:19:03;;;;;;;2.08;1.98;;;;;;;;;;5071863;28;20110;-87
2022/10/08 00:21:31;;;;;;;1.95;1.83;;;;;;;;;;5071004;28;20101;-87
2022/10/08 00:23:58;;;;;;;2.00;1.60;;;;;;;;;;5073255;28;20507;-87
2022/10/08 00:26:27;;;;;;;1.67;1.35;;;;;;;;;;5075048;28;20503;-87
2022/10/08 00:28:55;;;;;;;1.40;1.30;;;;;;;;;;5075249;28;20776;-87
2022/10/08 00:31:23;;;;;;;3.03;1.27;;;;;;;;;;5073320;28;20056;-87
2022/10/08 00:33:50;;;;;;;1.20;1.08;;;;;;;;;;5067522;28;20053;-87
2022/10/08 00:36:17;;;;;;;0.60;0.50;;;;;;;;;;5074837;28;20139;-90
2022/10/08 00:38:43;;;;;;;1.52;1.42;;;;;;;;;;5074950;28;20055;-89
2022/10/08 00:41:16;;;;;;;1.38;0.90;;;;;;;;;;5074802;28;20048;-89
2022/10/08 00:43:45;;;;;;;1.75;1.65;;;;;;;;;;5075230;28;20044;-90
2022/10/08 00:46:19;;;;;;;1.60;1.50;;;;;;;;;;5074906;28;20041;-90
2022/10/08 00:48:46;;;;;;;1.50;1.20;;;;;;;;;;5075171;28;20106;-87
2022/10/08 00:51:13;;;;;;;3.30;3.13;;;;;;;;;;5073911;28;20496;-88
2022/10/08 00:53:39;;;;;;;2.80;1.02;;;;;;;;;;5055629;28;20067;-88
2022/10/08 00:56:07;;;;;;;1.60;1.50;;;;;;;;;;5054590;28;20558;-87
2022/10/08 00:58:34;;;;;;;1.08;1.08;;;;;;;;;;5054821;28;20107;-89
2022/10/08 01:01:03;;;;;;;1.77;1.67;;;;;;;;;;5054589;28;20103;-88
2022/10/08 01:03:29;;;;;;;2.10;1.98;;;;;;;;;;5054886;28;20045;-88
2022/10/08 01:06:02;;;;;;;1.23;1.05;;;;;;;;;;5063090;28;20049;-87
2022/10/08 01:08:31;;;;;;;1.90;1.80;;;;;;;;;;5074360;28;20052;-87
2022/10/08 01:11:03;;;;;;;1.90;1.73;;;;;;;;;;5074267;28;20053;-87
2022/10/08 01:13:35;;;;;;;2.28;1.30;;;;;;;;;;5074334;28;20109;-88
2022/10/08 01:16:08;;;;;;;1.85;1.75;;;;;;;;;;5073922;28;20500;-87
2022/10/08 01:18:42;;;;;;;1.88;1.10;;;;;;;;;;5074003;28;20078;-87
2022/10/08 01:21:11;;;;;;;1.48;1.38;;;;;;;;;;5073464;28;20454;-87
2022/10/08 01:23:50;;;;;;;1.95;1.63;;;;;;;;;;5074226;28;20048;-87
2022/10/08 01:26:24;;;;;;;1.40;1.00;;;;;;;;;;5074412;28;20052;-88
2022/10/08 01:28:56;;;;;;;2.15;2.05;;;;;;;;;;5073958;28;20052;-87
2022/10/08 01:31:24;;;;;;;1.25;1.15;;;;;;;;;;5073651;28;20097;-87
2022/10/08 01:33:53;;;;;;;1.25;1.15;;;;;;;;;;5073003;28;20093;-88
2022/10/08 01:36:21;;;;;;;1.30;1.20;;;;;;;;;;5072851;28;20052;-88
2022/10/08 01:38:50;;;;;;;1.27;1.17;;;;;;;;;;5055680;28;20041;-88
2022/10/08 01:41:17;;;;;;;1.48;1.15;;;;;;;;;;5053734;28;20049;-87
2022/10/08 01:43:46;;;;;;;1.58;1.48;;;;;;;;;;5053842;28;20102;-88
2022/10/08 01:46:16;;;;;;;2.72;1.42;;;;;;;;;;5061246;28;20098;-88
2022/10/08 01:48:44;;;;;;;1.63;1.52;;;;;;;;;;5053741;28;20463;-88
2022/10/08 01:51:13;;;;;;;2.38;2.28;;;;;;;;;;5054229;28;20439;-89
2022/10/08 01:53:41;;;;;;;1.02;0.95;;;;;;;;;;5054372;28;20455;-88
2022/10/08 01:56:10;;;;;;;1.50;1.30;;;;;;;;;;5053599;28;20497;-88
2022/10/08 01:58:40;;;;;;;1.70;1.58;;;;;;;;;;5053373;28;20060;-88
2022/10/08 02:01:10;;;;;;;1.65;1.52;;;;;;;;;;5055813;28;20053;-90
2022/10/08 02:04:31;;;;;;;1.83;1.27;;;;;;;;;;5059062;28;20118;-90
2022/10/08 02:06:24;;;;;;;7.38;1.35;;;;;;;;;;5053143;28;20049;-88
2022/10/08 02:08:51;;;;;;;1.33;1.23;;;;;;;;;;5053411;28;20052;-89
2022/10/08 02:11:17;;;;;;;1.95;1.85;;;;;;;;;;5053424;28;20106;-90
2022/10/08 02:13:44;;;;;;;1.77;1.67;;;;;;;;;;5053816;28;20111;-89
2022/10/08 02:16:16;;;;;;;0.93;0.82;;;;;;;;;;5053307;28;20727;-89
2022/10/08 02:18:47;;;;;;;3.50;1.55;;;;;;;;;;5053460;28;20064;-89
2022/10/08 02:21:18;;;;;;;1.35;1.25;;;;;;;;;;5053479;28;20049;-89
2022/10/08 02:23:49;;;;;;;1.77;1.25;;;;;;;;;;5053420;28;20102;-88
2022/10/08 02:26:20;;;;;;;1.73;1.40;;;;;;;;;;5053345;28;20492;-89
2022/10/08 02:28:49;;;;;;;1.48;1.38;;;;;;;;;;5053032;28;20105;-89
2022/10/08 02:31:17;;;;;;;2.13;1.30;;;;;;;;;;5053033;28;20563;-89
2022/10/08 02:33:47;;;;;;;2.63;2.03;;;;;;;;;;5052980;28;20056;-88
2022/10/08 02:36:16;;;;;;;1.48;1.38;;;;;;;;;;5052925;28;20049;-88
2022/10/08 02:38:47;;;;;;;1.17;1.10;;;;;;;;;;5053396;28;20045;-90
2022/10/08 02:41:14;;;;;;;1.45;1.35;;;;;;;;;;5053254;28;20512;-91
2022/10/08 02:43:44;;;;;;;1.23;1.13;;;;;;;;;;5053272;28;20488;-89
2022/10/08 02:46:13;;;;;;;1.75;1.65;;;;;;;;;;5052220;28;20045;-88
2022/10/08 02:48:43;;;;;;;1.40;1.30;;;;;;;;;;5052415;28;20489;-87
2022/10/08 02:51:13;;;;;;;2.03;1.92;;;;;;;;;;5052205;28;20057;-87
2022/10/08 02:53:40;;;;;;;1.50;1.40;;;;;;;;;;5052178;28;20099;-88
2022/10/08 02:56:10;;;;;;;1.65;1.55;;;;;;;;;;5052710;28;20582;-87
2022/10/08 02:58:37;;;;;;;0.98;0.88;;;;;;;;;;5052002;28;20389;-90
2022/10/08 03:01:07;;;;;;;1.98;1.60;;;;;;;;;;5052880;28;20096;-90
2022/10/08 03:03:35;;;;;;;1.20;1.10;;;;;;;;;;5053151;28;20049;-91
2022/10/08 03:06:02;;;;;;;3.00;2.05;;;;;;;;;;5053271;28;20095;-91
2022/10/08 03:08:31;;;;;;;2.40;2.20;;;;;;;;;;5053386;28;20045;-91
2022/10/08 03:10:59;;;;;;;1.23;1.20;;;;;;;;;;5053371;28;20049;-91
2022/10/08 03:13:26;;;;;;;0.60;0.52;;;;;;;;;;5052985;28;20508;-90
2022/10/08 03:15:53;;;;;;;0.73;0.73;;;;;;;;;;5053037;28;20056;-91
2022/10/08 03:18:20;;;;;;;3.13;1.70;;;;;;;;;;5053276;28;20162;-90
2022/10/08 03:20:49;;;;;;;1.00;0.95;;;;;;;;;;5053309;28;20110;-89
2022/10/08 03:23:17;;;;;;;1.88;1.77;;;;;;;;;;5052602;28;20045;-90
2022/10/08 03:25:45;;;;;;;1.02;0.95;;;;;;;;;;5053148;28;20049;-91
2022/10/08 03:28:12;;;;;;;1.50;1.40;;;;;;;;;;5052892;28;20045;-91
2022/10/08 03:30:38;;;;;;;1.70;1.60;;;;;;;;;;5052810;28;20049;-91
2022/10/08 03:33:04;;;;;;;0.68;0.68;;;;;;;;;;5053035;28;20106;-90
2022/10/08 03:35:31;;;;;;;2.38;2.25;;;;;;;;;;5052660;28;20099;-88
2022/10/08 03:37:57;;;;;;;0.70;0.70;;;;;;;;;;5052015;28;20114;-88
2022/10/08 03:40:24;;;;;;;0.70;0.60;;;;;;;;;;5052206;28;20040;-88
2022/10/08 03:42:52;;;;;;;0.90;0.70;;;;;;;;;;5051504;28;20045;-89
2022/10/08 03:45:18;;;;;;;1.27;1.17;;;;;;;;;;5051630;28;20555;-88
2022/10/08 03:47:50;;;;;;;1.30;1.20;;;;;;;;;;5052072;28;20052;-90
2022/10/08 03:50:16;;;;;;;1.27;1.17;;;;;;;;;;5052064;28;20057;-89
2022/10/08 03:52:43;;;;;;;1.65;1.55;;;;;;;;;;5052219;28;20049;-89
2022/10/08 03:55:09;;;;;;;1.35;1.25;;;;;;;;;;5052300;28;20668;-89
2022/10/08 03:57:36;;;;;;;1.63;1.20;;;;;;;;;;5051910;28;20551;-90
2022/10/08 04:00:04;;;;;;;0.80;0.77;;;;;;;;;;5055808;28;20056;-90
2022/10/08 04:02:32;;;;;;;1.27;1.17;;;;;;;;;;5056786;28;20041;-90
2022/10/08 04:04:58;;;;;;;1.35;0.98;;;;;;;;;;5056560;28;20119;-90
2022/10/08 04:07:25;;;;;;;1.33;0.63;;;;;;;;;;5056703;28;20048;-89
2022/10/08 04:09:51;;;;;;;1.27;1.25;;;;;;;;;;5056341;28;20488;-88
2022/10/08 04:12:18;;;;;;;5.72;1.80;;;;;;;;;;5056545;28;20049;-89
2022/10/08 04:14:44;;;;;;;2.05;1.95;;;;;;;;;;5055641;28;20083;-90
2022/10/08 04:17:12;;;;;;;1.08;1.08;;;;;;;;;;5055753;28;20053;-88
2022/10/08 04:19:38;;;;;;;0.88;0.73;;;;;;;;;;5055734;28;20129;-89
2022/10/08 04:22:05;;;;;;;2.25;1.23;;;;;;;;;;5055487;28;20098;-90
2022/10/08 04:24:31;;;;;;;0.68;0.52;;;;;;;;;;5055804;28;20056;-90
2022/10/08 04:26:58;;;;;;;1.33;1.23;;;;;;;;;;5056147;28;20045;-89
2022/10/08 04:29:24;;;;;;;0.80;0.70;;;;;;;;;;5055873;28;20049;-89
2022/10/08 04:31:51;;;;;;;2.03;1.77;;;;;;;;;;5055722;28;20045;-89
2022/10/08 04:34:19;;;;;;;2.30;1.65;;;;;;;;;;5055145;28;20049;-87
2022/10/08 04:36:45;;;;;;;2.75;1.55;;;;;;;;;;5055404;28;20486;-88
2022/10/08 04:39:12;;;;;;;2.03;0.80;;;;;;;;;;5055198;28;20057;-88
2022/10/08 04:41:38;;;;;;;1.38;1.25;;;;;;;;;;5055220;28;20044;-88
2022/10/08 04:44:05;;;;;;;1.52;1.30;;;;;;;;;;5054962;28;20045;-88
2022/10/08 04:46:31;;;;;;;2.13;1.90;;;;;;;;;;5055241;28;20455;-88
2022/10/08 04:48:59;;;;;;;0.50;0.43;;;;;;;;;;5055562;28;20106;-88
2022/10/08 04:51:27;;;;;;;1.45;1.13;;;;;;;;;;5055298;28;20052;-88
2022/10/08 04:53:54;;;;;;;1.58;0.68;;;;;;;;;;5055086;28;20124;-87
2022/10/08 04:56:21;;;;;;;1.02;0.95;;;;;;;;;;5054497;28;20048;-87
2022/10/08 04:58:48;;;;;;;1.75;1.65;;;;;;;;;;5054714;28;20562;-87
2022/10/08 05:01:16;;;;;;;1.42;1.23;;;;;;;;;;5055775;28;20045;-88
2022/10/08 05:03:43;;;;;;;0.55;0.47;;;;;;;;;;5054637;28;20048;-88
2022/10/08 05:06:09;;;;;;;1.00;0.70;;;;;;;;;;5054531;28;20095;-88
2022/10/08 05:08:38;;;;;;;1.30;1.08;;;;;;;;;;5054513;28;20053;-88
2022/10/08 05:11:04;;;;;;;1.83;1.60;;;;;;;;;;5054603;28;20049;-87
2022/10/08 05:13:31;;;;;;;1.77;1.38;;;;;;;;;;5054640;28;20447;-89
2022/10/08 05:16:02;;;;;;;0.98;0.98;;;;;;;;;;5054580;28;20057;-88
2022/10/08 05:18:28;;;;;;;1.67;1.17;;;;;;;;;;5057471;28;20045;-87
2022/10/08 05:20:55;;;;;;;0.63;0.47;;;;;;;;;;5062448;28;20508;-87
2022/10/08 05:23:21;;;;;;;0.98;0.88;;;;;;;;;;5063491;28;20102;-87
2022/10/08 05:25:49;;;;;;;1.50;1.17;;;;;;;;;;5061685;28;20487;-87
2022/10/08 05:28:16;;;;;;;3.40;1.60;;;;;;;;;;5060835;28;20049;-86
2022/10/08 05:30:42;;;;;;;2.08;1.75;;;;;;;;;;5069177;28;20122;-87
2022/10/08 05:33:09;;;;;;;2.03;1.75;;;;;;;;;;5059994;28;20098;-87
2022/10/08 05:35:36;;;;;;;2.15;1.60;;;;;;;;;;5064676;28;20091;-87
2022/10/08 05:38:03;;;;;;;2.92;2.03;;;;;;;;;;5059889;28;20052;-86
2022/10/08 05:40:29;;;;;;;3.70;1.35;;;;;;;;;;5054956;28;20455;-85
2022/10/08 05:42:57;;;;;;;2.90;2.40;;;;;;;;;;5059207;28;20102;-86
2022/10/08 05:45:24;;;;;;;3.10;1.83;;;;;;;;;;5063298;28;20094;-88
2022/10/08 05:47:50;;;;;;;1.30;1.20;;;;;;;;;;5058110;28;20103;-88
2022/10/08 05:50:17;;;;;;;3.38;2.03;;;;;;;;;;5065821;28;20049;-87
2022/10/08 05:52:43;;;;;;;3.22;2.92;;;;;;;;;;5062140;28;20049;-88
2022/10/08 05:55:10;;;;;;;2.20;1.73;;;;;;;;;;5062857;28;20488;-87
2022/10/08 05:57:36;;;;;;;2.40;2.20;;;;;;;;;;5061540;28;20049;-88
2022/10/08 06:00:04;;;;;;;3.00;2.17;;;;;;;;;;5065449;28;20091;-88
2022/10/08 06:02:31;;;;;;;3.78;2.72;;;;;;;;;;5059856;28;20045;-88
2022/10/08 06:04:57;;;;;;;4.28;1.95;;;;;;;;;;5053569;28;20056;-88
2022/10/08 06:07:24;;;;;;;2.10;1.90;;;;;;;;;;5053702;28;20057;-88
2022/10/08 06:09:51;;;;;;;2.05;1.80;;;;;;;;;;5065623;28;20052;-88
2022/10/08 06:12:17;;;;;;;3.10;2.38;;;;;;;;;;5074219;28;20539;-88
2022/10/08 06:14:44;;;;;;;2.72;2.53;;;;;;;;;;5063388;28;20099;-88
2022/10/08 06:17:12;;;;;;;3.55;2.78;;;;;;;;;;5055368;28;20057;-88
2022/10/08 06:19:38;;;;;;;2.50;2.28;;;;;;;;;;5076638;28;20056;-88
2022/10/08 06:22:05;;;;;;;3.92;2.05;;;;;;;;;;5076812;28;20048;-88
2022/10/08 06:24:31;;;;;;;3.90;3.53;;;;;;;;;;5065246;28;20546;-88
2022/10/08 06:26:58;;;;;;;3.97;3.60;;;;;;;;;;5055042;28;20098;-89
2022/10/08 06:29:24;;;;;;;2.63;2.25;;;;;;;;;;5060213;28;20040;-89
2022/10/08 06:31:51;;;;;;;4.75;2.33;;;;;;;;;;5073132;28;20113;-89
2022/10/08 06:34:19;;;;;;;3.35;2.45;;;;;;;;;;5069123;28;20052;-88
2022/10/08 06:36:46;;;;;;;3.45;3.05;;;;;;;;;;5052576;28;20057;-89
2022/10/08 06:39:13;;;;;;;2.58;2.38;;;;;;;;;;5052836;28;20462;-89
2022/10/08 06:41:40;;;;;;;3.10;2.78;;;;;;;;;;5052870;28;20049;-88
2022/10/08 06:44:07;;;;;;;5.82;5.20;;;;;;;;;;5059278;28;20044;-88
2022/10/08 06:46:34;;;;;;;2.72;2.28;;;;;;;;;;5073164;28;20049;-90
2022/10/08 06:49:01;;;;;;;2.33;2.13;;;;;;;;;;5070259;28;20538;-89
2022/10/08 06:51:29;;;;;;;4.22;3.20;;;;;;;;;;5053148;28;20135;-92
2022/10/08 06:53:56;;;;;;;1.77;1.17;;;;;;;;;;5053564;28;20052;-93
2022/10/08 06:56:23;;;;;;;2.50;2.30;;;;;;;;;;5053567;28;20080;-90
2022/10/08 06:58:50;;;;;;;1.52;1.42;;;;;;;;;;5053159;28;20102;-92
2022/10/08 07:01:19;;;;;;;2.70;2.47;;;;;;;;;;5059860;28;20090;-91
2022/10/08 07:03:48;;;;;;;1.60;1.45;;;;;;;;;;5072692;28;20102;-90
2022/10/08 07:06:15;;;;;;;6.90;4.30;;;;;;;;;;5072375;28;20093;-90
2022/10/08 07:08:42;;;;;;;14.30;10.63;;;;;;;;;;5071341;28;20106;-91
2022/10/08 07:11:10;;;;;;;4.85;3.22;;;;;;;;;;5072660;28;20759;-90
2022/10/08 07:13:37;;;;;;;7.38;5.90;;;;;;;;;;5072850;28;20044;-92
2022/10/08 07:16:04;;;;;;;5.90;4.55;;;;;;;;;;5072755;28;20466;-91
2022/10/08 07:18:30;;;;;;;2.50;2.13;;;;;;;;;;5074054;28;20048;-92
2022/10/08 07:20:57;;;;;;;1.98;1.77;;;;;;;;;;5056981;28;20053;-90
2022/10/08 07:23:23;;;;;;;5.10;3.25;;;;;;;;;;5052214;28;20106;-90
2022/10/08 07:25:58;;;;;;;2.55;2.15;;;;;;;;;;5057383;28;20111;-91
2022/10/08 07:28:26;;;;;;;4.28;2.55;;;;;;;;;;5052293;28;20052;-90
2022/10/08 07:30:52;;;;;;;4.07;3.13;;;;;;;;;;5068080;28;20049;-90
2022/10/08 07:33:19;;;;;;;3.13;2.83;;;;;;;;;;5071859;28;20611;-89
2022/10/08 07:35:45;;;;;;;2.28;2.13;;;;;;;;;;5057451;28;20045;-89
2022/10/08 07:38:12;;;;;;;3.22;2.63;;;;;;;;;;5051650;28;20049;-89
2022/10/08 07:40:38;;;;;;;2.95;2.75;;;;;;;;;;5058263;28;20056;-91
2022/10/08 07:43:06;;;;;;;1.98;1.88;;;;;;;;;;5052387;28;20459;-91
2022/10/08 07:45:33;;;;;;;4.57;3.00;;;;;;;;;;5052008;28;20489;-90
2022/10/08 07:47:59;;;;;;;1.90;1.77;;;;;;;;;;5051946;28;20053;-90
2022/10/08 07:50:26;;;;;;;3.15;2.85;;;;;;;;;;5051370;28;20049;-89
2022/10/08 07:52:52;;;;;;;2.65;2.45;;;;;;;;;;5051224;28;20056;-88
2022/10/08 07:55:19;;;;;;;3.10;2.88;;;;;;;;;;5053339;28;20045;-88
2022/10/08 07:57:46;;;;;;;3.28;2.28;;;;;;;;;;5071251;28;20048;-88
2022/10/08 08:00:14;;;;;;;2.90;2.70;;;;;;;;;;5071558;28;20048;-88
2022/10/08 08:02:40;;;;;;;3.03;2.58;;;;;;;;;;5072694;28;20049;-90
2022/10/08 08:05:07;;;;;;;3.30;3.08;;;;;;;;;;5071931;28;20048;-90
2022/10/08 08:07:34;;;;;;;2.53;2.33;;;;;;;;;;5071998;28;20098;-90
2022/10/08 08:10:00;;;;;;;3.83;3.63;;;;;;;;;;5071842;28;20124;-89
2022/10/08 08:12:27;;;;;;;5.20;2.90;;;;;;;;;;5072375;28;20056;-91
2022/10/08 08:14:53;;;;;;;2.63;2.03;;;;;;;;;;5065770;28;20045;-89
2022/10/08 08:17:21;;;;;;;3.35;2.30;;;;;;;;;;5051625;28;20049;-90
2022/10/08 08:19:47;;;;;;;6.93;3.00;;;;;;;;;;5055947;28;20090;-89
2022/10/08 08:22:14;;;;;;;6.45;3.28;;;;;;;;;;5071768;28;20052;-89
2022/10/08 08:24:40;;;;;;;9.55;3.60;;;;;;;;;;5071465;28;20053;-89
2022/10/08 08:27:07;;;;;;;4.28;3.15;;;;;;;;;;5071823;28;20052;-90
2022/10/08 08:29:33;;;;;;;8.23;5.25;;;;;;;;;;5066427;28;20504;-89
2022/10/08 08:32:00;;;;;;;6.43;3.80;;;;;;;;;;5072009;28;20048;-89
2022/10/08 08:34:28;;;;;;;4.65;3.50;;;;;;;;;;5071633;28;20677;-89
2022/10/08 08:36:55;;;;;;;8.60;4.97;;;;;;;;;;5071832;28;20053;-88
2022/10/08 08:39:22;;;;;;;6.60;4.97;;;;;;;;;;5071684;28;20130;-89
2022/10/08 08:41:55;;;;;;;7.53;3.28;;;;;;;;;;5071444;28;20129;-89
2022/10/08 08:44:23;;;;;;;2.83;2.47;;;;;;;;;;5073531;28;20458;-89
2022/10/08 08:46:52;;;;;;;6.53;4.50;;;;;;;;;;5074324;28;20060;-89
2022/10/08 08:49:24;;;;;;;6.15;4.70;;;;;;;;;;5075627;28;20048;-89
2022/10/08 08:51:53;;;;;;;3.65;2.35;;;;;;;;;;5055697;28;20127;-89
2022/10/08 08:54:19;;;;;;;2.55;2.35;;;;;;;;;;5055547;28;20049;-88
2022/10/08 08:56:46;;;;;;;6.30;4.85;;;;;;;;;;5055301;28;20044;-89
2022/10/08 08:59:24;;;;;;;5.07;2.90;;;;;;;;;;5055255;28;20049;-89
2022/10/08 09:01:54;;;;;;;2.58;2.35;;;;;;;;;;5055044;28;20048;-88
2022/10/08 09:04:22;;;;;;;2.85;2.65;;;;;;;;;;5058547;28;20377;-89
2022/10/08 09:06:51;;;;;;;9.00;2.58;;;;;;;;;;5074709;28;20053;-89
2022/10/08 09:09:24;;;;;;;3.83;2.53;;;;;;;;;;5074959;28;20052;-89
2022/10/08 09:11:50;;;;;;;4.55;3.20;;;;;;;;;;5074961;28;20052;-90
2022/10/08 09:14:32;;;;;;;4.90;4.10;;;;;;;;;;5075381;28;20117;-90
2022/10/08 09:17:01;;;;;;;5.25;2.42;;;;;;;;;;5056241;28;20094;-89
2022/10/08 09:19:28;;;;;;;5.80;2.92;;;;;;;;;;5054514;28;20057;-89
2022/10/08 09:21:55;;;;;;;4.00;3.70;;;;;;;;;;5054847;28;20053;-89
2022/10/08 09:24:23;;;;;;;8.80;3.05;;;;;;;;;;5054863;28;20103;-88
2022/10/08 09:26:50;;;;;;;5.70;4.25;;;;;;;;;;5071769;28;20424;-89
2022/10/08 09:29:30;;;;;;;4.18;3.58;;;;;;;;;;5074796;28;20463;-90
2022/10/08 09:31:56;;;;;;;2.38;1.90;;;;;;;;;;5074498;28;20656;-89
2022/10/08 09:34:23;;;;;;;2.97;2.58;;;;;;;;;;5074297;28;20545;-89
2022/10/08 09:36:51;;;;;;;4.32;3.92;;;;;;;;;;5067691;28;20094;-88
2022/10/08 09:39:18;;;;;;;3.65;2.80;;;;;;;;;;5054609;28;20099;-88
2022/10/08 09:41:47;;;;;;;5.25;3.97;;;;;;;;;;5053995;28;20049;-88
2022/10/08 09:44:15;;;;;;;3.78;2.90;;;;;;;;;;5054301;28;20037;-88
2022/10/08 09:46:42;;;;;;;5.18;2.65;;;;;;;;;;5057932;28;20097;-89
2022/10/08 09:49:26;;;;;;;5.13;3.40;;;;;;;;;;5074894;28;20051;-88
2022/10/08 09:51:53;;;;;;;3.60;2.72;;;;;;;;;;5057808;28;20049;-88
2022/10/08 09:54:21;;;;;;;5.22;3.20;;;;;;;;;;5070335;28;20060;-88
2022/10/08 09:56:53;;;;;;;3.80;2.75;;;;;;;;;;5057224;28;20053;-89
2022/10/08 09:59:20;;;;;;;2.92;2.63;;;;;;;;;;5053429;28;20586;-86
2022/10/08 10:01:47;;;;;;;8.63;2.92;;;;;;;;;;5054704;28;20057;-91
2022/10/08 10:04:18;;;;;;;2.60;2.40;;;;;;;;;;5056709;28;20044;-92
2022/10/08 10:06:47;;;;;;;5.40;2.90;;;;;;;;;;5074592;28;20668;-92
2022/10/08 10:09:23;;;;;;;4.85;3.83;;;;;;;;;;5074741;28;20389;-94
2022/10/08 10:11:54;;;;;;;3.70;3.25;;;;;;;;;;5054669;28;20103;-92
2022/10/08 10:14:23;;;;;;;4.55;3.00;;;;;;;;;;5054741;28;20045;-93
2022/10/08 10:16:53;;;;;;;5.05;2.67;;;;;;;;;;5054733;28;20056;-92
2022/10/08 10:19:22;;;;;;;3.45;3.05;;;;;;;;;;5072008;28;20455;-92
2022/10/08 10:21:52;;;;;;;4.32;3.92;;;;;;;;;;5079520;28;20048;-93
2022/10/08 10:24:27;;;;;;;4.97;4.47;;;;;;;;;;5082542;28;20103;-91
2022/10/08 10:26:56;;;;;;;3.80;3.50;;;;;;;;;;5077612;28;20117;-93
2022/10/08 10:29:25;;;;;;;5.13;4.53;;;;;;;;;;5074094;28;20488;-93
2022/10/08 10:31:53;;;;;;;4.10;3.15;;;;;;;;;;5074276;28;20052;-94
2022/10/08 10:34:22;;;;;;;4.63;3.33;;;;;;;;;;5071955;28;20090;-92
2022/10/08 10:36:51;;;;;;;4.32;4.00;;;;;;;;;;5062838;28;20098;-91
2022/10/08 10:39:23;;;;;;;4.07;3.78;;;;;;;;;;5073068;28;20718;-92
2022/10/08 10:41:52;;;;;;;3.00;2.58;;;;;;;;;;5070470;28;20565;-91
2022/10/08 10:44:23;;;;;;;3.88;3.58;;;;;;;;;;5055235;28;20434;-90
2022/10/08 10:46:51;;;;;;;4.40;3.35;;;;;;;;;;5053059;28;20057;-91
2022/10/08 10:49:18;;;;;;;3.58;3.17;;;;;;;;;;5053923;28;20055;-92
2022/10/08 10:51:57;;;;;;;4.38;3.30;;;;;;;;;;5058184;28;20110;-90
2022/10/08 10:54:41;;;;;;;3.33;2.70;;;;;;;;;;5067100;28;20098;-89
2022/10/08 10:57:12;;;;;;;3.10;2.85;;;;;;;;;;5058208;28;20052;-92
2022/10/08 10:59:46;;;;;;;3.60;3.08;;;;;;;;;;5053656;28;20052;-91
2022/10/08 11:02:16;;;;;;;3.50;3.20;;;;;;;;;;5053398;28;20520;-91
2022/10/08 11:04:42;;;;;;;;;;;;;;;;;;5064405;28;20161;-93
2022/10/08 11:07:17;;;;;;;4.63;2.90;;;;;;;;;;5071401;28;20602;-94
2022/10/08 11:09:46;;;;;;;5.22;4.82;;;;;;;;;;5060115;28;20041;-91
2022/10/08 11:12:27;;;;;;;3.67;3.38;;;;;;;;;;5052906;28;20106;-93
2022/10/08 11:15:08;;;;;;;3.63;3.33;;;;;;;;;;5068135;28;20037;-93
2022/10/08 11:17:42;;;;;;;2.92;2.72;;;;;;;;;;5064869;28;20048;-94
2022/10/08 11:20:19;;;;;;;4.90;4.53;;;;;;;;;;5057303;28;20053;-94
2022/10/08 11:22:48;;;;;;;5.95;3.65;;;;;;;;;;5052348;28;20056;-95
2022/10/08 11:25:20;;;;;;;3.88;3.58;;;;;;;;;;5052604;28;20451;-93
2022/10/08 11:27:52;;;;;;;4.25;3.95;;;;;;;;;;5052732;28;20460;-93
2022/10/08 11:30:21;;;;;;;4.88;3.80;;;;;;;;;;5052528;28;20497;-93
2022/10/08 11:32:50;;;;;;;5.15;4.75;;;;;;;;;;5052036;28;20098;-93
2022/10/08 11:35:23;;;;;;;4.45;4.05;;;;;;;;;;5051288;28;20107;-91
2022/10/08 11:37:52;;;;;;;6.00;5.50;;;;;;;;;;5051737;28;20037;-93
2022/10/08 11:40:22;;;;;;;6.10;5.70;;;;;;;;;;5051879;28;20451;-92
2022/10/08 11:42:52;;;;;;;4.82;3.92;;;;;;;;;;5052043;28;20075;-93
2022/10/08 11:45:34;;;;;;;5.43;4.30;;;;;;;;;;5052400;28;20041;-94
2022/10/08 11:48:02;;;;;;;4.72;3.38;;;;;;;;;;5051573;28;20492;-93
2022/10/08 11:50:30;;;;;;;5.80;4.90;;;;;;;;;;5064708;28;20052;-92
2022/10/08 11:52:59;;;;;;;4.70;4.38;;;;;;;;;;5062237;28;20052;-91
2022/10/08 11:55:26;;;;;;;5.53;5.18;;;;;;;;;;5063174;28;20480;-91
2022/10/08 11:57:55;;;;;;;5.00;4.65;;;;;;;;;;5064881;28;20101;-91
2022/10/08 12:00:42;;;;;;;5.47;4.03;;;;;;;;;;5059720;28;21427;-91
2022/10/08 12:03:20;;;;;;;6.55;4.53;;;;;;;;;;5057085;28;20045;-91
2022/10/08 12:05:49;;;;;;;3.88;3.58;;;;;;;;;;5051878;28;20103;-91
2022/10/08 12:08:31;;;;;;;6.45;5.13;;;;;;;;;;5052075;28;20056;-91
2022/10/08 12:11:17;;;;;;;5.05;4.57;;;;;;;;;;5061546;28;20045;-91
2022/10/08 12:13:44;;;;;;;5.43;5.13;;;;;;;;;;5061167;28;20048;-91
2022/10/08 12:16:10;;;;;;;4.05;3.75;;;;;;;;;;5058487;28;20068;-94
2022/10/08 12:18:45;;;;;;;5.25;4.80;;;;;;;;;;5059103;28;20098;-93
2022/10/08 12:21:31;;;;;;;3.63;3.13;;;;;;;;;;5066530;28;20448;-94
2022/10/08 12:23:59;;;;;;;4.07;3.83;;;;;;;;;;5066529;28;20037;-93
2022/10/08 12:26:31;;;;;;;7.28;6.28;;;;;;;;;;5067018;28;20059;-93
2022/10/08 12:28:58;;;;;;;4.75;3.58;;;;;;;;;;5066476;28;20075;-95
2022/10/08 12:31:28;;;;;;;4.50;4.13;;;;;;;;;;5070303;28;20045;-93
2022/10/08 12:33:56;;;;;;;5.47;3.80;;;;;;;;;;5055674;28;20560;-90
2022/10/08 12:36:26;;;;;;;4.25;3.97;;;;;;;;;;5061414;28;20488;-91
2022/10/08 12:38:55;;;;;;;4.13;3.83;;;;;;;;;;5060722;28;20049;-92
2022/10/08 12:41:25;;;;;;;5.20;4.90;;;;;;;;;;5061722;28;20099;-94
2022/10/08 12:43:53;;;;;;;3.83;3.63;;;;;;;;;;5064225;28;20062;-94
2022/10/08 12:46:25;;;;;;;4.43;4.05;;;;;;;;;;5071905;28;20609;-95
2022/10/08 12:48:53;;;;;;;6.28;4.28;;;;;;;;;;5058386;28;20729;-95
2022/10/08 12:51:24;;;;;;;5.45;4.97;;;;;;;;;;5067387;28;20548;-92
2022/10/08 12:53:50;;;;;;;2.70;2.50;;;;;;;;;;5068754;28;20060;-91
2022/10/08 12:56:18;;;;;;;5.90;5.35;;;;;;;;;;5062700;28;20045;-92
2022/10/08 12:58:47;;;;;;;4.10;3.75;;;;;;;;;;5064420;28;20048;-94
2022/10/08 13:01:15;;;;;;;5.35;4.85;;;;;;;;;;5059863;28;20120;-94
2022/10/08 13:03:41;;;;;;;5.30;4.68;;;;;;;;;;5068755;28;20121;-94
2022/10/08 13:06:15;;;;;;;4.00;3.70;;;;;;;;;;5063594;28;20053;-93
2022/10/08 13:08:41;;;;;;;3.97;3.67;;;;;;;;;;5058544;28;20051;-92
2022/10/08 13:11:09;;;;;;;3.88;3.65;;;;;;;;;;5067023;28;20114;-93
2022/10/08 13:13:41;;;;;;;4.32;4.00;;;;;;;;;;5064209;28;20049;-94
2022/10/08 13:16:10;;;;;;;4.93;4.53;;;;;;;;;;5061659;28;20143;-93
2022/10/08 13:18:38;;;;;;;3.63;3.33;;;;;;;;;;5062758;28;20048;-93
2022/10/08 13:21:06;;;;;;;2.92;2.72;;;;;;;;;;5075598;28;20049;-93
2022/10/08 13:23:34;;;;;;;4.50;4.20;;;;;;;;;;5067571;28;20098;-94
2022/10/08 13:26:00;;;;;;;4.80;4.50;;;;;;;;;;5067523;28;20477;-94
2022/10/08 13:28:27;;;;;;;4.07;3.67;;;;;;;;;;5066859;28;20049;-94
2022/10/08 13:30:56;;;;;;;4.07;3.78;;;;;;;;;;5054574;28;20045;-94
2022/10/08 13:33:25;;;;;;;4.75;4.47;;;;;;;;;;5067813;28;20048;-95
2022/10/08 13:35:53;;;;;;;4.28;3.85;;;;;;;;;;5072974;28;21377;-94
2022/10/08 13:38:21;;;;;;;3.55;3.33;;;;;;;;;;5068928;28;20048;-94
2022/10/08 13:40:49;;;;;;;4.43;4.13;;;;;;;;;;5072377;28;20106;-94
2022/10/08 13:43:15;;;;;;;4.07;3.63;;;;;;;;;;5072620;28;20048;-92
2022/10/08 13:45:42;;;;;;;5.03;4.75;;;;;;;;;;5074325;28;20044;-93
2022/10/08 13:48:10;;;;;;;3.83;3.53;;;;;;;;;;5072204;28;20040;-92
2022/10/08 13:50:42;;;;;;;5.55;5.15;;;;;;;;;;5072514;28;20114;-93
2022/10/08 13:53:09;;;;;;;6.22;5.88;;;;;;;;;;5072504;28;20421;-93
2022/10/08 13:55:36;;;;;;;5.43;5.00;;;;;;;;;;5072144;28;20053;-94
2022/10/08 13:58:04;;;;;;;5.57;5.07;;;;;;;;;;5056770;28;20102;-91
2022/10/08 14:00:31;;;;;;;3.90;3.60;;;;;;;;;;5061763;28;20048;-94
2022/10/08 14:02:58;;;;;;;3.90;3.60;;;;;;;;;;5054811;28;20106;-93
2022/10/08 14:05:24;;;;;;;5.72;5.43;;;;;;;;;;5054254;28;20045;-92
2022/10/08 14:07:54;;;;;;;5.43;5.07;;;;;;;;;;5063989;28;20054;-92
2022/10/08 14:10:21;;;;;;;4.88;4.55;;;;;;;;;;5074268;28;20060;-94
2022/10/08 14:12:47;;;;;;;7.45;6.90;;;;;;;;;;5074728;28;20045;-94
2022/10/08 14:15:15;;;;;;;6.32;5.72;;;;;;;;;;5071987;28;20039;-95
2022/10/08 14:17:41;;;;;;;5.45;4.43;;;;;;;;;;5063366;28;20060;-93
2022/10/08 14:20:08;;;;;;;4.60;4.30;;;;;;;;;;5074054;28;20049;-94
2022/10/08 14:22:38;;;;;;;3.25;3.00;;;;;;;;;;5090112;28;20072;-92
2022/10/08 14:25:08;;;;;;;4.82;4.40;;;;;;;;;;5095891;28;20048;-92
2022/10/08 14:27:34;;;;;;;4.10;3.80;;;;;;;;;;5071346;28;20650;-93
2022/10/08 14:30:01;;;;;;;4.60;3.50;;;;;;;;;;5056286;28;20140;-93
2022/10/08 14:32:27;;;;;;;4.05;3.38;;;;;;;;;;5061441;28;20492;-93
2022/10/08 14:34:54;;;;;;;4.32;4.03;;;;;;;;;;5075730;28;20105;-93
2022/10/08 14:37:20;;;;;;;5.93;5.43;;;;;;;;;;5064968;28;20468;-93
2022/10/08 14:39:47;;;;;;;4.53;4.20;;;;;;;;;;5057271;28;20056;-94
2022/10/08 14:42:15;;;;;;;3.33;2.78;;;;;;;;;;5071870;28;20056;-94
2022/10/08 14:44:41;;;;;;;2.65;2.45;;;;;;;;;;5073784;28;20487;-93
2022/10/08 14:47:08;;;;;;;3.35;3.15;;;;;;;;;;5071375;28;20098;-94
2022/10/08 14:49:34;;;;;;;3.47;2.85;;;;;;;;;;5053885;28;20505;-93
2022/10/08 14:52:01;;;;;;;5.30;4.90;;;;;;;;;;5070756;28;20094;-94